createdAt,value
2023-02-19T00:01:43.639Z,1.13
2023-02-19T00:04:14.329Z,0.80
2023-02-19T00:06:44.283Z,0.95
2023-02-19T00:09:15.304Z,1.08
2023-02-19T00:11:43.708Z,1.35
2023-02-19T00:14:12.274Z,1.37
2023-02-19T00:16:41.254Z,0.80
2023-02-19T00:19:10.362Z,1.50
2023-02-19T00:21:38.478Z,1.08
2023-02-19T00:24:08.966Z,1.83
2023-02-19T00:26:36.875Z,0.93
2023-02-19T00:29:05.141Z,1.08
2023-02-19T00:31:34.119Z,1.27
2023-02-19T00:36:30.647Z,1.52
2023-02-19T00:38:58.992Z,0.93
2023-02-19T00:41:29.251Z,1.20
2023-02-19T00:43:58.088Z,1.05
2023-02-19T00:46:26.956Z,1.60
2023-02-19T00:48:56.316Z,0.93
2023-02-19T00:51:26.766Z,0.95
2023-02-19T00:53:55.411Z,1.50
2023-02-19T00:56:23.439Z,1.13
2023-02-19T00:58:53.774Z,1.15
2023-02-19T01:01:21.754Z,1.42
2023-02-19T01:03:50.246Z,0.70
2023-02-19T01:06:19.120Z,0.65
2023-02-19T01:08:47.464Z,1.05
2023-02-19T01:11:15.857Z,1.02
2023-02-19T01:13:44.169Z,1.65
2023-02-19T01:16:14.547Z,1.13
2023-02-19T01:18:43.139Z,1.02
2023-02-19T01:21:13.181Z,1.10
2023-02-19T01:23:41.484Z,0.73
2023-02-19T01:26:10.751Z,1.20
2023-02-19T01:28:38.959Z,0.85
2023-02-19T01:31:08.521Z,0.85
2023-02-19T01:33:38.436Z,1.20
2023-02-19T01:36:07.183Z,1.27
2023-02-19T01:38:36.532Z,1.52
2023-02-19T01:41:06.795Z,1.30
2023-02-19T01:43:36.210Z,1.40
2023-02-19T01:46:04.190Z,1.70
2023-02-19T01:48:33.963Z,1.13
2023-02-19T01:51:04.830Z,1.00
2023-02-19T01:53:34.622Z,1.42
2023-02-19T01:58:32.929Z,0.90
2023-02-19T02:01:01.706Z,1.15
2023-02-19T02:03:30.674Z,1.13
2023-02-19T02:06:01.696Z,1.52
2023-02-19T02:08:50.005Z,1.58
2023-02-19T02:11:18.235Z,1.05
2023-02-19T02:13:46.933Z,1.52
2023-02-19T02:16:19.147Z,0.97
2023-02-19T02:18:53.898Z,1.60
2023-02-19T02:21:34.946Z,1.25
2023-02-19T02:24:24.094Z,1.30
2023-02-19T02:27:02.436Z,0.52
2023-02-19T02:29:45.720Z,1.45
2023-02-19T02:32:17.418Z,0.82
2023-02-19T02:34:49.697Z,0.77
2023-02-19T02:37:17.883Z,1.08
2023-02-19T02:39:46.786Z,1.10
2023-02-19T02:42:29.807Z,1.00
2023-02-19T02:45:16.243Z,1.08
2023-02-19T02:47:48.864Z,0.80
2023-02-19T02:50:19.098Z,0.60
2023-02-19T02:53:06.457Z,1.13
2023-02-19T02:55:36.320Z,0.93
2023-02-19T02:58:04.377Z,1.20
2023-02-19T03:00:59.188Z,1.00
2023-02-19T03:03:29.329Z,1.10
2023-02-19T03:06:00.017Z,1.00
2023-02-19T03:08:30.341Z,0.70
2023-02-19T03:11:22.575Z,0.75
2023-02-19T03:14:09.657Z,0.55
2023-02-19T03:16:56.495Z,0.57
2023-02-19T03:19:26.765Z,0.88
2023-02-19T03:21:56.722Z,0.85
2023-02-19T03:24:45.920Z,0.85
2023-02-19T03:27:15.604Z,0.88
2023-02-19T03:32:12.898Z,0.85
2023-02-19T03:37:14.654Z,0.90
2023-02-19T03:39:45.571Z,1.20
2023-02-19T03:42:19.297Z,0.80
2023-02-19T03:44:49.780Z,1.08
2023-02-19T03:47:19.968Z,0.85
2023-02-19T03:49:50.878Z,0.60
2023-02-19T03:52:25.160Z,0.85
2023-02-19T03:54:56.083Z,0.75
2023-02-19T03:57:27.109Z,0.63
2023-02-19T03:59:57.068Z,0.82
2023-02-19T04:02:28.987Z,0.88
2023-02-19T04:05:00.524Z,1.00
2023-02-19T04:07:31.484Z,0.57
2023-02-19T04:09:59.825Z,0.60
2023-02-19T04:12:28.667Z,0.65
2023-02-19T04:15:02.686Z,1.20
2023-02-19T04:17:35.505Z,0.70
2023-02-19T04:20:05.193Z,1.10
2023-02-19T04:22:35.250Z,0.77
2023-02-19T04:25:03.224Z,1.00
2023-02-19T04:27:32.844Z,0.90
2023-02-19T04:30:00.878Z,1.15
2023-02-19T04:32:29.336Z,0.57
2023-02-19T04:34:57.293Z,1.40
2023-02-19T04:37:27.924Z,1.13
2023-02-19T04:39:57.233Z,1.20
2023-02-19T04:42:25.545Z,0.75
2023-02-19T04:44:53.985Z,0.73
2023-02-19T04:47:22.206Z,0.63
2023-02-19T04:49:50.084Z,1.27
2023-02-19T04:52:18.288Z,0.68
2023-02-19T04:54:46.221Z,0.90
2023-02-19T04:57:16.095Z,0.82
2023-02-19T04:59:44.058Z,0.90
2023-02-19T05:02:12.420Z,0.80
2023-02-19T05:04:40.344Z,0.80
2023-02-19T05:07:08.530Z,0.95
2023-02-19T05:09:36.640Z,0.63
2023-02-19T05:12:05.225Z,1.10
2023-02-19T05:14:34.628Z,1.17
2023-02-19T05:17:02.835Z,0.70
2023-02-19T05:19:30.860Z,1.17
2023-02-19T05:21:59.053Z,1.00
2023-02-19T05:24:27.602Z,1.50
2023-02-19T05:26:55.808Z,1.00
2023-02-19T05:29:23.884Z,1.38
2023-02-19T05:31:53.818Z,0.80
2023-02-19T05:34:21.892Z,1.23
2023-02-19T05:36:50.185Z,1.52
2023-02-19T05:39:18.070Z,0.90
2023-02-19T05:41:46.356Z,0.73
2023-02-19T05:44:14.233Z,0.93
2023-02-19T05:46:42.510Z,1.20
2023-02-19T05:49:11.936Z,1.00
2023-02-19T05:51:40.188Z,1.15
2023-02-19T05:54:08.201Z,1.50
2023-02-19T05:56:37.267Z,0.80
2023-02-19T05:59:06.869Z,1.40
2023-02-19T06:01:35.802Z,1.15
2023-02-19T06:04:04.135Z,1.10
2023-02-19T06:06:34.137Z,1.02
2023-02-19T06:09:02.039Z,1.13
2023-02-19T06:11:30.695Z,0.65
2023-02-19T06:13:58.598Z,1.50
2023-02-19T06:16:26.901Z,0.93
2023-02-19T06:18:54.959Z,1.08
2023-02-19T06:21:23.172Z,1.33
2023-02-19T06:23:52.950Z,1.42
2023-02-19T06:26:21.768Z,0.90
2023-02-19T06:28:50.605Z,1.07
2023-02-19T06:31:20.099Z,1.35
2023-02-19T06:33:48.262Z,1.27
2023-02-19T06:36:17.224Z,1.42
2023-02-19T06:38:45.822Z,1.20
2023-02-19T06:41:16.090Z,1.25
2023-02-19T06:43:44.009Z,1.33
2023-02-19T06:46:13.334Z,1.35
2023-02-19T06:48:42.423Z,0.77
2023-02-19T06:51:12.494Z,1.05
2023-02-19T06:53:40.769Z,1.10
2023-02-19T06:56:22.300Z,1.17
2023-02-19T06:58:51.944Z,1.38
2023-02-19T07:01:21.251Z,1.38
2023-02-19T07:03:49.226Z,1.10
2023-02-19T07:06:17.465Z,1.38
2023-02-19T07:08:45.583Z,0.80
2023-02-19T07:11:14.151Z,1.17
2023-02-19T07:13:42.054Z,1.17
2023-02-19T07:16:12.309Z,0.98
2023-02-19T07:18:40.841Z,1.55
2023-02-19T07:21:10.456Z,1.73
2023-02-19T07:26:09.694Z,1.58
2023-02-19T07:28:37.656Z,1.35
2023-02-19T07:31:06.330Z,0.65
2023-02-19T07:33:35.692Z,0.93
2023-02-19T07:36:04.077Z,1.13
2023-02-19T07:38:31.957Z,1.08
2023-02-19T07:41:01.302Z,1.35
2023-02-19T07:43:30.165Z,1.30
2023-02-19T07:45:58.546Z,1.13
2023-02-19T07:48:26.721Z,1.60
2023-02-19T07:50:58.030Z,1.40
2023-02-19T07:53:26.401Z,1.13
2023-02-19T07:55:54.735Z,1.17
2023-02-19T07:58:22.873Z,1.13
2023-02-19T08:00:51.093Z,1.40
2023-02-19T08:03:18.110Z,1.13
2023-02-19T08:05:47.298Z,1.10
2023-02-19T08:08:16.872Z,1.60
2023-02-19T08:11:02.756Z,1.10
2023-02-19T08:13:31.452Z,1.63
2023-02-19T08:16:18.313Z,1.20
2023-02-19T08:18:47.291Z,1.50
2023-02-19T08:21:18.405Z,1.80
2023-02-19T08:23:50.569Z,1.35
2023-02-19T08:26:19.202Z,0.85
2023-02-19T08:28:47.449Z,1.20
2023-02-19T08:31:15.860Z,2.15
2023-02-19T08:33:44.041Z,2.58
2023-02-19T08:36:12.423Z,1.30
2023-02-19T08:38:40.305Z,0.90
2023-02-19T08:41:11.226Z,1.00
2023-02-19T08:43:39.405Z,1.77
2023-02-19T08:46:10.229Z,1.73
2023-02-19T08:48:38.705Z,1.85
2023-02-19T08:51:08.548Z,1.00
2023-02-19T08:53:38.415Z,1.08
2023-02-19T08:56:07.260Z,1.08
2023-02-19T08:58:37.533Z,1.35
2023-02-19T09:01:09.606Z,0.90
2023-02-19T09:03:37.853Z,1.17
2023-02-19T09:06:06.591Z,2.17
2023-02-19T09:08:34.710Z,1.48
2023-02-19T09:11:03.803Z,1.40
2023-02-19T09:13:32.065Z,1.73
2023-02-19T09:16:03.400Z,4.80
2023-02-19T09:18:31.399Z,1.20
2023-02-19T09:21:01.014Z,0.80
2023-02-19T09:23:29.381Z,0.90
2023-02-19T09:26:01.263Z,1.20
2023-02-19T09:28:29.432Z,1.00
2023-02-19T09:30:58.035Z,1.33
2023-02-19T09:33:27.387Z,0.70
2023-02-19T09:35:55.899Z,0.75
2023-02-19T09:38:23.809Z,0.88
2023-02-19T09:40:52.018Z,0.77
2023-02-19T09:43:21.288Z,1.08
2023-02-19T09:45:50.091Z,0.70
2023-02-19T09:48:18.223Z,1.00
2023-02-19T09:50:49.787Z,0.77
2023-02-19T09:53:20.761Z,0.70
2023-02-19T09:55:49.651Z,0.47
2023-02-19T09:58:25.816Z,1.08
2023-02-19T10:00:55.395Z,0.98
2023-02-19T10:03:30.635Z,1.00
2023-02-19T10:06:01.963Z,0.40
2023-02-19T10:08:32.730Z,0.60
2023-02-19T10:11:01.937Z,0.50
2023-02-19T10:13:31.652Z,0.50
2023-02-19T10:16:01.949Z,1.00
2023-02-19T10:18:31.327Z,0.70
2023-02-19T10:21:01.424Z,0.40
2023-02-19T10:23:29.339Z,0.60
2023-02-19T10:25:58.356Z,0.65
2023-02-19T10:28:29.586Z,0.70
2023-02-19T10:30:58.819Z,0.65
2023-02-19T10:33:27.181Z,0.80
2023-02-19T10:35:57.380Z,0.70
2023-02-19T10:38:28.971Z,0.50
2023-02-19T10:41:02.148Z,0.50
2023-02-19T10:43:34.172Z,0.50
2023-02-19T10:46:06.964Z,0.38
2023-02-19T10:48:37.436Z,0.47
2023-02-19T10:51:08.721Z,0.65
2023-02-19T10:53:42.023Z,0.68
2023-02-19T10:56:11.305Z,0.60
2023-02-19T10:58:40.293Z,0.50
2023-02-19T11:01:16.066Z,0.45
2023-02-19T11:03:44.230Z,0.40
2023-02-19T11:06:13.538Z,0.50
2023-02-19T11:08:48.698Z,0.30
2023-02-19T11:11:24.689Z,0.50
2023-02-19T11:13:52.869Z,0.50
2023-02-19T11:16:21.126Z,0.37
2023-02-19T11:18:57.070Z,0.43
2023-02-19T11:21:28.781Z,0.40
2023-02-19T11:23:58.149Z,0.30
2023-02-19T11:26:29.442Z,1.83
2023-02-19T11:28:59.720Z,0.40
2023-02-19T11:31:29.400Z,0.70
2023-02-19T11:36:35.585Z,0.30
2023-02-19T11:39:12.084Z,0.40
2023-02-19T11:41:52.409Z,0.40
2023-02-19T11:44:30.623Z,0.40
2023-02-19T11:47:04.626Z,0.40
2023-02-19T11:49:40.512Z,0.30
2023-02-19T11:52:15.928Z,0.45
2023-02-19T11:54:51.317Z,0.35
2023-02-19T11:57:25.985Z,0.40
2023-02-19T11:59:59.094Z,0.30
2023-02-19T12:02:46.125Z,0.40
2023-02-19T12:05:27.309Z,0.52
2023-02-19T12:08:06.088Z,0.40
2023-02-19T12:10:40.474Z,0.17
2023-02-19T12:13:11.512Z,0.50
2023-02-19T12:15:50.214Z,0.25
2023-02-19T12:18:36.275Z,0.50
2023-02-19T12:21:12.809Z,0.40
2023-02-19T12:23:57.506Z,0.50
2023-02-19T12:26:28.805Z,0.40
2023-02-19T12:29:13.815Z,0.95
2023-02-19T12:31:57.225Z,0.43
2023-02-19T12:34:36.008Z,0.45
2023-02-19T12:37:10.725Z,0.30
2023-02-19T12:39:42.136Z,0.52
2023-02-19T12:42:28.230Z,0.60
2023-02-19T12:44:59.341Z,0.40
2023-02-19T12:47:31.282Z,0.32
2023-02-19T12:50:02.531Z,0.20
2023-02-19T12:52:36.757Z,0.65
2023-02-19T12:55:09.676Z,0.28
2023-02-19T12:57:42.680Z,0.40
2023-02-19T13:00:18.906Z,0.20
2023-02-19T13:02:51.754Z,0.20
2023-02-19T13:05:21.226Z,0.20
2023-02-19T13:07:54.429Z,0.45
2023-02-19T13:10:27.143Z,0.40
2023-02-19T13:12:59.348Z,0.20
2023-02-19T13:15:31.725Z,0.30
2023-02-19T13:18:01.560Z,0.40
2023-02-19T13:20:32.195Z,0.20
2023-02-19T13:25:53.893Z,0.43
2023-02-19T13:28:31.276Z,0.22
2023-02-19T13:31:07.910Z,0.95
2023-02-19T13:33:42.480Z,0.20
2023-02-19T13:36:14.595Z,0.40
2023-02-19T13:38:44.426Z,0.10
2023-02-19T13:41:20.902Z,0.25
2023-02-19T13:43:56.516Z,0.68
2023-02-19T13:46:25.468Z,0.52
2023-02-19T13:49:08.295Z,0.88
2023-02-19T13:51:41.007Z,0.40
2023-02-19T13:54:21.299Z,0.40
2023-02-19T13:56:50.190Z,0.20
2023-02-19T13:59:27.491Z,0.25
2023-02-19T14:02:17.011Z,0.30
2023-02-19T14:04:47.582Z,0.30
2023-02-19T14:07:46.032Z,0.50
2023-02-19T14:10:35.604Z,0.40
2023-02-19T14:13:03.903Z,0.30
2023-02-19T14:15:44.120Z,0.40
2023-02-19T14:18:32.901Z,0.20
2023-02-19T14:21:07.641Z,0.33
2023-02-19T14:23:36.135Z,0.52
2023-02-19T14:26:07.868Z,0.40
2023-02-19T14:28:38.345Z,0.52
2023-02-19T14:31:25.205Z,0.57
2023-02-19T14:33:58.068Z,0.43
2023-02-19T14:36:32.457Z,0.30
2023-02-19T14:39:02.490Z,0.20
2023-02-19T14:41:33.198Z,0.20
2023-02-19T14:44:05.301Z,0.38
2023-02-19T14:46:35.845Z,0.20
2023-02-19T14:49:08.998Z,0.30
2023-02-19T14:51:39.310Z,0.40
2023-02-19T14:54:15.639Z,0.70
2023-02-19T14:56:45.842Z,1.30
2023-02-19T14:59:25.471Z,0.70
2023-02-19T15:01:57.576Z,0.35
2023-02-19T15:04:29.110Z,0.40
2023-02-19T15:06:57.961Z,1.05
2023-02-19T15:09:29.779Z,0.40
2023-02-19T15:11:58.218Z,0.82
2023-02-19T15:14:30.876Z,0.47
2023-02-19T15:17:00.344Z,1.13
2023-02-19T15:19:33.094Z,0.52
2023-02-19T15:22:01.985Z,0.82
2023-02-19T15:24:30.377Z,0.93
2023-02-19T15:26:58.772Z,0.70
2023-02-19T15:29:28.547Z,0.60
2023-02-19T15:34:25.679Z,0.50
2023-02-19T15:36:57.854Z,0.50
2023-02-19T15:39:27.004Z,0.43
2023-02-19T15:41:59.138Z,0.20
2023-02-19T15:44:37.538Z,0.30
2023-02-19T15:47:09.952Z,0.50
2023-02-19T15:49:42.242Z,0.40
2023-02-19T15:52:13.526Z,0.88
2023-02-19T15:54:45.082Z,0.55
2023-02-19T15:57:16.418Z,0.60
2023-02-19T15:59:48.813Z,0.82
2023-02-19T16:02:18.132Z,0.60
2023-02-19T16:04:46.704Z,0.95
2023-02-19T16:07:26.152Z,1.10
2023-02-19T16:10:08.314Z,1.40
2023-02-19T16:12:39.230Z,1.83
2023-02-19T16:15:13.549Z,1.42
2023-02-19T16:17:44.147Z,0.82
2023-02-19T16:20:18.766Z,0.80
2023-02-19T16:22:48.291Z,0.93
2023-02-19T16:25:34.585Z,0.75
2023-02-19T16:28:11.151Z,0.65
2023-02-19T16:30:39.840Z,0.73
2023-02-19T16:33:21.228Z,0.70
2023-02-19T16:35:52.441Z,0.75
2023-02-19T16:38:22.429Z,0.65
2023-02-19T16:40:59.290Z,0.55
2023-02-19T16:43:31.794Z,0.63
2023-02-19T16:46:00.944Z,0.90
2023-02-19T16:48:29.247Z,0.60
2023-02-19T16:50:57.581Z,0.82
2023-02-19T16:53:27.390Z,0.70
2023-02-19T16:55:55.687Z,0.90
2023-02-19T16:58:23.940Z,1.23
2023-02-19T17:00:52.450Z,1.30
2023-02-19T17:03:21.339Z,1.33
2023-02-19T17:05:50.878Z,1.10
2023-02-19T17:08:34.156Z,1.40
2023-02-19T17:11:03.688Z,1.42
2023-02-19T17:13:31.905Z,1.30
2023-02-19T17:16:00.543Z,1.27
2023-02-19T17:18:28.822Z,0.98
2023-02-19T17:20:59.966Z,1.10
2023-02-19T17:23:28.074Z,2.17
2023-02-19T17:25:58.149Z,1.45
2023-02-19T17:28:26.220Z,1.70
2023-02-19T17:30:55.211Z,1.65
2023-02-19T17:33:24.023Z,1.85
2023-02-19T17:35:52.343Z,1.80
2023-02-19T17:38:20.337Z,1.90
2023-02-19T17:40:50.886Z,1.95
2023-02-19T17:43:20.940Z,1.90
2023-02-19T17:45:49.237Z,1.02
2023-02-19T17:48:18.417Z,1.20
2023-02-19T17:50:49.314Z,1.75
2023-02-19T17:53:17.783Z,1.58
2023-02-19T17:55:47.440Z,1.50
2023-02-19T18:00:45.279Z,1.50
2023-02-19T18:03:13.449Z,1.50
2023-02-19T18:05:41.848Z,1.70
2023-02-19T18:08:09.909Z,1.67
2023-02-19T18:10:38.157Z,1.88
2023-02-19T18:13:06.486Z,1.33
2023-02-19T18:15:34.944Z,1.88
2023-02-19T18:18:05.277Z,2.20
2023-02-19T18:20:37.140Z,2.10
2023-02-19T18:23:05.356Z,1.90
2023-02-19T18:25:33.631Z,1.87
2023-02-19T18:28:02.344Z,1.92
2023-02-19T18:30:30.805Z,1.95
2023-02-19T18:32:59.006Z,2.72
2023-02-19T18:35:28.690Z,2.67
2023-02-19T18:37:56.685Z,1.75
2023-02-19T18:40:27.510Z,1.92
2023-02-19T18:42:55.532Z,1.90
2023-02-19T18:45:24.122Z,1.98
2023-02-19T18:47:52.154Z,1.88
2023-02-19T18:50:21.012Z,2.10
2023-02-19T18:52:50.750Z,2.27
2023-02-19T18:55:20.042Z,1.90
2023-02-19T18:57:50.185Z,2.28
2023-02-19T19:00:19.678Z,1.80
2023-02-19T19:02:51.305Z,2.20
2023-02-19T19:05:23.585Z,1.50
2023-02-19T19:07:53.504Z,2.15
2023-02-19T19:10:21.830Z,1.50
2023-02-19T19:12:52.169Z,2.33
2023-02-19T19:15:25.473Z,2.10
2023-02-19T19:17:53.553Z,1.85
2023-02-19T19:20:22.439Z,1.67
2023-02-19T19:22:53.905Z,1.70
2023-02-19T19:25:22.867Z,1.92
2023-02-19T19:27:51.961Z,2.10
2023-02-19T19:30:21.403Z,1.58
2023-02-19T19:32:49.596Z,1.85
2023-02-19T19:35:18.045Z,1.93
2023-02-19T19:37:46.236Z,1.33
2023-02-19T19:40:18.276Z,1.88
2023-02-19T19:42:46.727Z,1.50
2023-02-19T19:45:16.303Z,1.60
2023-02-19T19:47:44.357Z,1.85
2023-02-19T19:50:13.233Z,1.85
2023-02-19T19:52:41.275Z,1.60
2023-02-19T19:55:09.711Z,1.77
2023-02-19T19:57:40.868Z,1.98
2023-02-19T20:00:10.654Z,1.98
2023-02-19T20:02:39.568Z,1.42
2023-02-19T20:05:10.875Z,1.42
2023-02-19T20:07:39.289Z,1.40
2023-02-19T20:10:08.576Z,1.50
2023-02-19T20:12:37.036Z,1.63
2023-02-19T20:15:07.378Z,2.00
2023-02-19T20:17:35.380Z,1.60
2023-02-19T20:20:03.944Z,1.83
2023-02-19T20:22:32.081Z,1.85
2023-02-19T20:25:00.419Z,1.07
2023-02-19T20:27:28.520Z,1.15
2023-02-19T20:29:56.863Z,1.20
2023-02-19T20:32:26.513Z,0.93
2023-02-19T20:34:54.833Z,1.52
2023-02-19T20:37:24.320Z,0.73
2023-02-19T20:39:53.101Z,1.77
2023-02-19T20:42:21.628Z,1.10
2023-02-19T20:44:49.915Z,1.08
2023-02-19T20:47:18.016Z,1.17
2023-02-19T20:49:48.087Z,0.60
2023-02-19T20:52:17.630Z,0.95
2023-02-19T20:54:46.704Z,1.00
2023-02-19T20:57:15.507Z,0.70
2023-02-19T20:59:44.337Z,1.10
2023-02-19T21:02:15.820Z,0.77
2023-02-19T21:04:44.175Z,0.30
2023-02-19T21:07:14.043Z,0.65
2023-02-19T21:09:42.386Z,0.90
2023-02-19T21:12:10.543Z,0.60
2023-02-19T21:14:40.274Z,0.82
2023-02-19T21:17:08.271Z,1.10
2023-02-19T21:19:39.167Z,0.93
2023-02-19T21:22:07.220Z,0.73
2023-02-19T21:24:36.946Z,0.70
2023-02-19T21:29:33.207Z,0.57
2023-02-19T21:32:01.740Z,0.65
2023-02-19T21:34:30.606Z,0.75
2023-02-19T21:36:59.874Z,0.80
2023-02-19T21:39:28.688Z,1.10
2023-02-19T21:41:58.737Z,0.55
2023-02-19T21:44:27.190Z,0.85
2023-02-19T21:46:55.515Z,0.70
2023-02-19T21:49:24.223Z,0.53
2023-02-19T21:51:52.454Z,0.60
2023-02-19T21:54:24.704Z,0.60
2023-02-19T21:56:53.040Z,0.70
2023-02-19T21:59:23.379Z,0.70
2023-02-19T22:01:51.766Z,1.00
2023-02-19T22:04:20.862Z,0.82
2023-02-19T22:06:48.836Z,0.60
2023-02-19T22:09:17.351Z,0.85
2023-02-19T22:11:45.291Z,0.70
2023-02-19T22:14:13.864Z,0.52
2023-02-19T22:16:43.287Z,0.80
2023-02-19T22:19:12.242Z,0.75
2023-02-19T22:21:42.908Z,0.80
2023-02-19T22:24:15.290Z,0.35
2023-02-19T22:26:44.972Z,0.90
2023-02-19T22:29:14.016Z,0.75
2023-02-19T22:31:43.745Z,0.45
2023-02-19T22:34:13.078Z,0.90
2023-02-19T22:36:40.996Z,0.80
2023-02-19T22:39:16.156Z,0.90
2023-02-19T22:41:44.457Z,0.88
2023-02-19T22:44:12.954Z,0.52
2023-02-19T22:46:40.955Z,0.60
2023-02-19T22:49:10.682Z,0.63
2023-02-19T22:54:06.754Z,0.75
2023-02-19T22:56:34.715Z,0.93
2023-02-19T22:59:03.053Z,0.88
2023-02-19T23:01:31.887Z,0.50
2023-02-19T23:04:01.191Z,0.80
2023-02-19T23:06:32.025Z,1.20
2023-02-19T23:09:01.956Z,0.60
2023-02-19T23:11:31.786Z,0.85
2023-02-19T23:14:00.035Z,1.42
2023-02-19T23:16:28.392Z,0.95
2023-02-19T23:18:56.736Z,0.70
2023-02-19T23:21:24.683Z,0.85
2023-02-19T23:23:54.379Z,0.68
2023-02-19T23:28:50.638Z,0.80
2023-02-19T23:31:18.938Z,0.80
2023-02-19T23:33:47.210Z,0.40
2023-02-19T23:36:15.881Z,1.00
2023-02-19T23:38:45.079Z,1.00
2023-02-19T23:41:16.939Z,0.65
2023-02-19T23:43:45.194Z,0.80
2023-02-19T23:46:15.452Z,0.80
2023-02-19T23:48:44.239Z,0.70
2023-02-19T23:51:12.453Z,1.10
2023-02-19T23:53:40.758Z,1.10
2023-02-19T23:56:08.709Z,0.90
2023-02-19T23:58:38.480Z,0.88
